Mid Missouri, Missouri
Current Conditions -  °F | °C
As of 6:54 PM on Friday 24 Oct 2014 (Local Time) from KCOU Reporting Station
Clear Clear  
Wind Chill: 68°   Ceiling: Unl
Heat Index: 68°   Visibility: 10mi
Dew Point: 59°   Wind: 8mph
Humidity: 73%   Direction: 190°S
Pressure: 29.99"   Gusts: NA
Location:  39.02°N, 92.25°W
Report Text: KCOU 242354Z 19007KT 10SM CLR 20/15 A2999 RMK AO2 SLP151 T02000150 10228 20194 56003
Loading
Personal Weather Stations






























Interactive Weather Map
Tropical Storm Tracking
New forecast layout! Learn more

10-Day Weather Forecast

Advertisements
Track Severe Weather on mobile